Time;durP1;ratioP1;P1;durP2;ratioP2;P2;SDS_P1;SDS_P2;PMS_P1;PMS_P2;Temp;Humidity;BMP_temperature;BMP_pressure;BME280_temperature;BME280_humidity;BME280_pressure;Samples;Min_cycle;Max_cycle;Signal;HPM_P1;HPM_P2
2023/06/14 00:01:49;;;;;;;6.80;5.85;;;;;;;19.11;50.38;101334.13;4863278;29;20248;-73
2023/06/14 00:04:18;;;;;;;7.05;6.20;;;;;;;19.04;48.60;101342.09;4862037;29;20033;-73
2023/06/14 00:06:45;;;;;;;6.10;5.50;;;;;;;19.05;50.48;101341.22;4864394;29;20025;-73
2023/06/14 00:09:12;;;;;;;7.25;5.57;;;;;;;18.96;50.21;101342.13;4878056;29;20136;-73
2023/06/14 00:11:38;;;;;;;6.85;5.63;;;;;;;18.75;48.92;101338.59;4864339;29;20104;-73
2023/06/14 00:14:03;;;;;;;7.70;5.68;;;;;;;18.75;50.47;101335.97;4864481;29;20048;-73
2023/06/14 00:16:29;;;;;;;6.72;5.57;;;;;;;18.72;49.89;101343.03;4861959;29;20491;-73
2023/06/14 00:18:54;;;;;;;6.63;5.93;;;;;;;18.70;49.99;101336.88;4862339;29;20511;-73
2023/06/14 00:21:19;;;;;;;7.00;5.65;;;;;;;18.71;49.83;101339.53;4864087;29;20034;-73
2023/06/14 00:23:45;;;;;;;5.85;5.35;;;;;;;18.71;50.73;101344.81;4862725;29;20065;-73
2023/06/14 00:26:11;;;;;;;6.80;5.47;;;;;;;18.70;50.80;101344.81;4864328;29;20041;-73
2023/06/14 00:28:36;;;;;;;6.70;5.43;;;;;;;18.67;49.97;101352.69;4863397;29;20043;-73
2023/06/14 00:31:01;;;;;;;6.68;5.82;;;;;;;18.62;50.32;101351.84;4861529;29;20096;-73
2023/06/14 00:33:27;;;;;;;6.43;4.97;;;;;;;18.58;49.73;101350.97;4865325;29;20449;-74
2023/06/14 00:35:55;;;;;;;6.13;4.95;;;;;;;18.49;47.56;101349.22;4864320;29;20036;-73
2023/06/14 00:38:21;;;;;;;8.05;5.47;;;;;;;18.52;48.96;101348.34;4863997;29;20090;-74
2023/06/14 00:40:46;;;;;;;5.72;5.07;;;;;;;18.52;49.58;101340.41;4864120;29;20033;-73
2023/06/14 00:43:11;;;;;;;6.18;5.25;;;;;;;18.50;48.52;101345.69;4862419;29;20645;-74
2023/06/14 00:45:37;;;;;;;6.18;5.35;;;;;;;18.49;48.40;101343.06;4863915;29;20105;-73
2023/06/14 00:48:06;;;;;;;6.03;5.43;;;;;;;18.49;49.14;101351.84;4864171;29;20067;-73
2023/06/14 00:50:32;;;;;;;6.47;5.05;;;;;;;18.38;46.46;101345.72;4864252;29;20025;-73
2023/06/14 00:52:59;;;;;;;6.43;5.05;;;;;;;18.34;48.36;101349.25;4862266;29;20572;-73
2023/06/14 00:55:25;;;;;;;7.95;5.20;;;;;;;18.26;47.94;101343.94;4861795;29;20083;-73
2023/06/14 00:57:51;;;;;;;6.65;4.65;;;;;;;18.21;47.88;101343.94;4863529;29;20037;-73
2023/06/14 01:00:16;;;;;;;5.50;4.93;;;;;;;18.21;48.30;101341.31;4864833;29;20076;-73
2023/06/14 01:02:42;;;;;;;5.10;4.53;;;;;;;18.27;48.43;101344.84;4863350;29;20824;-73
2023/06/14 01:05:09;;;;;;;7.40;4.70;;;;;;;18.22;48.31;101345.72;4864458;29;20040;-73
2023/06/14 01:07:43;;;;;;;5.60;4.78;;;;;;;18.17;47.75;101352.75;4863989;29;20042;-73
2023/06/14 01:10:20;;;;;;;5.45;4.63;;;;;;;18.15;48.86;101348.38;4864887;29;20040;-73
2023/06/14 01:12:58;;;;;;;5.65;4.72;;;;;;;18.11;48.07;101347.47;4864506;29;20064;-73
2023/06/14 01:15:24;;;;;;;5.45;4.68;;;;;;;18.06;48.47;101351.84;4863867;29;20084;-73
2023/06/14 01:17:51;;;;;;;5.80;4.40;;;;;;;18.03;47.51;101344.84;4862135;29;20073;-73
2023/06/14 01:20:19;;;;;;;7.00;4.70;;;;;;;18.02;48.36;101344.84;4864541;29;20129;-73
2023/06/14 01:22:51;;;;;;;6.95;4.47;;;;;;;18.04;47.83;101348.34;4864944;29;20077;-73
2023/06/14 01:25:20;;;;;;;6.40;4.32;;;;;;;18.01;47.63;101350.97;4864532;29;20037;-73
2023/06/14 01:27:48;;;;;;;5.30;4.60;;;;;;;17.97;48.41;101347.44;4863992;29;20043;-73
2023/06/14 01:30:14;;;;;;;5.53;4.05;;;;;;;17.96;47.16;101355.34;4863069;29;20013;-73
2023/06/14 01:32:40;;;;;;;6.20;4.28;;;;;;;17.93;47.95;101356.25;4862023;29;20045;-73
2023/06/14 01:35:08;;;;;;;6.25;4.15;;;;;;;17.88;47.00;101355.31;4876926;23;20049;-96
2023/06/14 01:37:34;;;;;;;6.32;4.20;;;;;;;17.85;47.48;101356.19;4983172;23;20132;-76
2023/06/14 01:40:01;;;;;;;5.43;4.18;;;;;;;17.81;48.32;101351.78;4833245;29;20072;-76
2023/06/14 01:42:27;;;;;;;6.10;4.30;;;;;;;17.75;48.08;101353.56;4834012;29;20037;-77
2023/06/14 01:44:54;;;;;;;6.38;4.15;;;;;;;17.64;47.73;101356.16;4833054;29;20515;-77
2023/06/14 01:47:19;;;;;;;7.18;4.10;;;;;;;17.53;47.97;101353.50;4832398;29;20034;-73
2023/06/14 01:49:46;;;;;;;7.88;4.07;;;;;;;17.55;48.13;101357.00;4833293;29;20038;-73
2023/06/14 01:52:12;;;;;;;5.35;4.15;;;;;;;17.56;49.04;101351.72;4832668;29;20113;-73
2023/06/14 01:54:41;;;;;;;6.43;4.07;;;;;;;17.56;48.00;101358.78;4832977;29;20201;-73
2023/06/14 01:57:07;;;;;;;6.30;3.92;;;;;;;17.52;48.48;101344.72;4832916;29;20623;-73
2023/06/14 01:59:34;;;;;;;6.03;4.13;;;;;;;17.50;47.96;101353.50;4833059;29;20041;-73
2023/06/14 02:02:00;;;;;;;5.20;3.95;;;;;;;17.46;49.17;101346.44;4833286;29;20026;-73
2023/06/14 02:04:25;;;;;;;5.13;3.97;;;;;;;17.42;48.65;101347.31;4838922;29;20283;-73
2023/06/14 02:06:50;;;;;;;5.35;3.88;;;;;;;17.41;48.69;101351.72;4839242;29;20038;-73
2023/06/14 02:09:16;;;;;;;5.15;3.97;;;;;;;17.38;48.08;101343.81;4838074;29;20037;-73
2023/06/14 02:11:41;;;;;;;7.68;3.92;;;;;;;17.32;48.28;101351.66;4839087;29;20968;-73
2023/06/14 02:14:07;;;;;;;4.60;4.18;;;;;;;17.26;48.69;101351.63;4838516;29;20033;-73
2023/06/14 02:16:35;;;;;;;6.45;3.90;;;;;;;17.21;48.09;101352.50;4839001;29;20485;-73
2023/06/14 02:19:01;;;;;;;5.78;4.07;;;;;;;17.23;49.88;101352.50;4838461;29;20037;-73
2023/06/14 02:21:26;;;;;;;5.28;4.10;;;;;;;17.21;50.01;101354.25;4837926;29;20034;-73
2023/06/14 02:23:51;;;;;;;4.95;3.88;;;;;;;17.18;48.96;101356.88;4837548;29;20030;-73
2023/06/14 02:26:17;;;;;;;7.63;4.50;;;;;;;17.13;49.26;101348.97;4837711;29;20030;-73
2023/06/14 02:28:42;;;;;;;8.40;4.10;;;;;;;17.11;50.23;101349.81;4838444;29;20058;-73
2023/06/14 02:31:08;;;;;;;5.85;4.15;;;;;;;17.10;50.25;101346.28;4838160;29;20033;-73
2023/06/14 02:33:33;;;;;;;7.40;4.13;;;;;;;17.08;49.93;101350.69;4838574;29;20486;-73
2023/06/14 02:35:58;;;;;;;5.97;4.25;;;;;;;17.07;50.51;101355.94;4835559;29;20045;-73
2023/06/14 02:38:23;;;;;;;5.50;4.75;;;;;;;16.99;48.67;101364.69;4827489;29;20058;-73
2023/06/14 02:40:49;;;;;;;5.13;4.20;;;;;;;16.98;49.33;101351.53;4825143;29;20026;-73
2023/06/14 02:43:15;;;;;;;5.05;3.80;;;;;;;16.94;50.46;101361.13;4825517;29;20046;-73
2023/06/14 02:45:40;;;;;;;5.57;3.90;;;;;;;16.94;50.60;101365.53;4825434;29;20033;-73
2023/06/14 02:48:05;;;;;;;5.80;4.20;;;;;;;16.91;50.25;101362.88;4825746;29;20406;-73
2023/06/14 02:50:31;;;;;;;6.55;4.30;;;;;;;16.87;51.33;101364.56;4823973;29;20170;-73
2023/06/14 02:52:56;;;;;;;5.20;4.32;;;;;;;16.84;50.83;101364.56;4825536;29;20407;-73
2023/06/14 02:55:22;;;;;;;6.30;4.38;;;;;;;16.75;49.58;101373.28;4825136;29;20026;-73
2023/06/14 02:57:48;;;;;;;7.13;4.28;;;;;;;16.75;50.82;101370.63;4825513;29;20325;-73
2023/06/14 03:00:13;;;;;;;6.78;4.13;;;;;;;16.68;50.83;101372.38;4824948;29;20117;-73
2023/06/14 03:02:39;;;;;;;5.97;4.32;;;;;;;16.67;50.13;101369.72;4824413;29;20029;-73
2023/06/14 03:05:06;;;;;;;5.40;4.38;;;;;;;16.67;51.23;101364.47;4824035;29;20110;-73
2023/06/14 03:07:32;;;;;;;8.18;4.90;;;;;;;16.63;50.46;101374.06;4825873;29;20030;-73
2023/06/14 03:09:57;;;;;;;5.72;4.40;;;;;;;16.57;50.44;101373.13;4825430;29;20065;-73
2023/06/14 03:12:23;;;;;;;5.15;3.88;;;;;;;16.57;51.33;101381.03;4820496;29;20081;-73
2023/06/14 03:14:50;;;;;;;5.00;4.18;;;;;;;16.50;50.58;101390.66;4825566;29;20093;-73
2023/06/14 03:17:17;;;;;;;5.45;4.53;;;;;;;16.47;51.56;101382.72;4826237;29;20042;-73
2023/06/14 03:19:42;;;;;;;5.35;3.90;;;;;;;16.44;52.28;101383.59;4826028;29;20557;-73
2023/06/14 03:22:08;;;;;;;5.25;4.22;;;;;;;16.45;50.79;101377.47;4824023;29;20037;-73
2023/06/14 03:24:36;;;;;;;6.18;4.30;;;;;;;16.44;50.96;101382.72;4822416;29;20028;-73
2023/06/14 03:27:02;;;;;;;6.95;4.50;;;;;;;16.41;50.89;101386.19;4826386;29;20036;-73
2023/06/14 03:29:27;;;;;;;6.03;4.10;;;;;;;16.41;51.70;101391.44;4823684;29;20699;-73
2023/06/14 03:32:03;;;;;;;6.50;4.22;;;;;;;16.43;51.80;101392.34;4824451;29;20465;-73
2023/06/14 03:34:28;;;;;;;6.13;4.18;;;;;;;16.41;52.11;101395.81;4822650;29;20040;-73
2023/06/14 03:36:53;;;;;;;6.28;4.15;;;;;;;16.41;52.84;101387.91;4823359;29;20022;-73
2023/06/14 03:39:19;;;;;;;5.85;4.25;;;;;;;16.39;52.66;101395.81;4822273;29;20511;-73
2023/06/14 03:41:45;;;;;;;6.93;4.00;;;;;;;16.37;51.58;101399.31;4824165;29;20542;-73
2023/06/14 03:44:10;;;;;;;5.72;4.40;;;;;;;16.34;52.35;101395.78;4825445;29;20578;-73
2023/06/14 03:46:36;;;;;;;5.45;3.83;;;;;;;16.33;52.33;101395.75;4822829;29;20021;-73
2023/06/14 03:49:02;;;;;;;5.72;3.92;;;;;;;16.31;52.47;101402.75;4822715;29;20282;-73
2023/06/14 03:51:28;;;;;;;5.00;4.30;;;;;;;16.26;51.94;101399.19;4821000;29;20034;-73
2023/06/14 03:53:55;;;;;;;6.32;4.22;;;;;;;16.26;52.31;101407.09;4821375;29;20032;-73
2023/06/14 03:56:20;;;;;;;5.57;4.43;;;;;;;16.23;53.56;101404.44;4822615;29;20034;-73
2023/06/14 03:58:45;;;;;;;6.93;4.78;;;;;;;16.19;52.83;101400.88;4824659;29;20088;-73
2023/06/14 04:01:12;;;;;;;6.03;4.28;;;;;;;16.10;53.17;101398.19;4824850;29;20022;-73
2023/06/14 04:03:37;;;;;;;6.15;4.25;;;;;;;16.11;53.85;101406.06;4825597;29;20039;-73
2023/06/14 04:06:04;;;;;;;6.85;4.82;;;;;;;16.10;53.17;101404.31;4825555;29;20107;-73
2023/06/14 04:08:30;;;;;;;7.50;4.07;;;;;;;16.06;53.71;101409.53;4825324;29;20076;-73
2023/06/14 04:10:55;;;;;;;6.78;4.28;;;;;;;16.07;53.50;101409.53;4826336;29;20121;-73
2023/06/14 04:13:20;;;;;;;5.93;4.40;;;;;;;16.04;53.13;101412.13;4825312;29;20486;-73
2023/06/14 04:15:45;;;;;;;5.43;4.07;;;;;;;16.05;54.32;101416.53;4823803;29;20070;-73
2023/06/14 04:18:12;;;;;;;6.93;4.05;;;;;;;16.04;53.59;101419.16;4822942;29;20030;-73
2023/06/14 04:20:37;;;;;;;7.30;4.60;;;;;;;16.04;53.91;101417.41;4824232;29;20055;-73
2023/06/14 04:23:17;;;;;;;5.75;3.97;;;;;;;16.04;54.63;101416.53;4822142;29;20509;-73
2023/06/14 04:25:45;;;;;;;8.40;4.15;;;;;;;16.01;54.63;101422.63;4822790;29;20109;-73
2023/06/14 04:28:11;;;;;;;6.88;4.43;;;;;;;16.00;55.87;101423.47;4822083;29;20573;-73
2023/06/14 04:30:38;;;;;;;7.32;4.32;;;;;;;15.99;54.95;101424.38;4823008;29;20065;-73
2023/06/14 04:33:05;;;;;;;6.07;4.43;;;;;;;15.95;55.34;101427.81;4824967;29;20034;-73
2023/06/14 04:35:32;;;;;;;7.30;4.40;;;;;;;15.95;56.70;101423.44;4822754;29;20036;-73
2023/06/14 04:37:58;;;;;;;8.23;4.63;;;;;;;15.95;57.31;101425.19;4824475;29;20061;-73
2023/06/14 04:40:24;;;;;;;5.60;4.13;;;;;;;15.91;56.26;101423.41;4821328;29;20098;-73
2023/06/14 04:42:50;;;;;;;5.63;4.38;;;;;;;15.92;56.78;101425.16;4824857;29;20041;-73
2023/06/14 04:45:16;;;;;;;9.13;5.15;;;;;;;15.86;56.72;101423.34;4822632;29;20398;-73
2023/06/14 04:47:42;;;;;;;6.45;4.60;;;;;;;15.84;57.51;101426.81;4820670;29;20026;-73
2023/06/14 04:50:07;;;;;;;7.18;4.80;;;;;;;15.87;57.28;101429.47;4822910;29;20038;-73
2023/06/14 04:52:35;;;;;;;6.68;4.65;;;;;;;15.89;57.99;101430.38;4823188;29;20511;-73
2023/06/14 04:55:01;;;;;;;7.07;4.22;;;;;;;15.89;57.47;101433.00;4821223;29;20042;-73
2023/06/14 04:57:27;;;;;;;6.13;4.38;;;;;;;15.89;57.94;101430.38;4822504;29;20026;-73
2023/06/14 04:59:54;;;;;;;5.55;4.35;;;;;;;15.85;55.67;101433.84;4824735;29;20049;-73
2023/06/14 05:02:20;;;;;;;6.72;4.47;;;;;;;15.88;58.35;101432.13;4821859;29;20030;-73
2023/06/14 05:04:47;;;;;;;7.63;4.57;;;;;;;15.92;57.70;101427.78;4823517;29;20695;-73
2023/06/14 05:07:14;;;;;;;6.10;4.38;;;;;;;15.96;58.68;101437.44;4822919;29;20117;-73
2023/06/14 05:09:39;;;;;;;6.13;4.43;;;;;;;16.00;59.50;101428.75;4824135;29;20029;-73
2023/06/14 05:12:07;;;;;;;7.32;4.70;;;;;;;16.00;58.21;101436.63;4821802;29;20046;-73
2023/06/14 05:14:33;;;;;;;7.18;4.20;;;;;;;15.97;55.37;101442.75;4822143;29;20034;-73
2023/06/14 05:16:58;;;;;;;6.68;4.45;;;;;;;15.99;58.46;101445.41;4822240;29;20042;-73
2023/06/14 05:19:23;;;;;;;7.32;4.45;;;;;;;16.05;59.13;101436.66;4820475;29;20030;-73
2023/06/14 05:21:49;;;;;;;5.13;4.30;;;;;;;16.05;57.80;101440.19;4822869;29;20069;-73
2023/06/14 05:24:16;;;;;;;5.85;4.15;;;;;;;16.05;57.15;101448.09;4821736;29;20082;-73
2023/06/14 05:26:42;;;;;;;7.85;4.32;;;;;;;16.08;56.98;101449.88;4822458;29;20094;-73
2023/06/14 05:29:07;;;;;;;6.05;4.10;;;;;;;16.10;57.31;101456.00;4822655;29;20464;-73
2023/06/14 05:31:33;;;;;;;4.95;4.10;;;;;;;16.13;58.67;101450.78;4823099;29;20034;-73
2023/06/14 05:33:58;;;;;;;5.40;4.55;;;;;;;16.20;58.43;101446.47;4821716;29;20157;-73
2023/06/14 05:36:24;;;;;;;5.05;4.00;;;;;;;16.24;57.58;101446.53;4822054;29;20034;-73
2023/06/14 05:38:51;;;;;;;8.13;4.45;;;;;;;16.33;57.75;101451.00;4823680;29;20068;-73
2023/06/14 05:41:16;;;;;;;5.70;4.00;;;;;;;16.40;57.67;101447.53;4823015;29;20037;-73
2023/06/14 05:43:41;;;;;;;6.22;4.40;;;;;;;16.50;56.28;101454.66;4822208;29;20414;-73
2023/06/14 05:46:07;;;;;;;5.88;4.70;;;;;;;16.58;56.09;101456.47;4823016;29;20037;-73
2023/06/14 05:48:32;;;;;;;6.63;4.38;;;;;;;16.63;56.66;101463.53;4822544;29;20178;-73
2023/06/14 05:50:58;;;;;;;7.55;4.32;;;;;;;16.75;56.56;101459.25;4819104;29;20158;-73
2023/06/14 05:53:24;;;;;;;5.97;4.45;;;;;;;16.88;56.08;101470.78;4822835;29;20498;-73
2023/06/14 05:55:53;;;;;;;9.00;4.10;;;;;;;16.96;56.62;101466.44;4823402;29;20038;-73
2023/06/14 05:58:18;;;;;;;;;;;;;;;17.07;54.28;101459.50;4823635;29;20030;-73
2023/06/14 06:00:43;;;;;;;8.40;4.57;;;;;;;17.10;55.32;101466.56;4822554;29;20442;-73
2023/06/14 06:03:11;;;;;;;4.95;3.78;;;;;;;17.21;53.89;101473.63;4823360;29;20774;-73
2023/06/14 06:05:36;;;;;;;6.07;3.85;;;;;;;17.31;54.44;101471.94;4822188;29;20505;-73
2023/06/14 06:08:01;;;;;;;5.10;3.65;;;;;;;17.45;54.36;101476.41;4823534;29;20116;-73
2023/06/14 06:10:27;;;;;;;5.40;4.00;;;;;;;17.53;53.80;101469.44;4823636;29;20037;-73
2023/06/14 06:12:54;;;;;;;5.40;3.97;;;;;;;17.61;53.30;101477.38;4824323;29;20490;-73
2023/06/14 06:15:20;;;;;;;5.68;4.10;;;;;;;17.67;53.22;101475.66;4823192;29;20026;-73
2023/06/14 06:17:45;;;;;;;6.90;4.10;;;;;;;17.75;54.01;101480.94;4824199;29;20031;-73
2023/06/14 06:20:11;;;;;;;5.32;3.78;;;;;;;17.90;53.38;101477.50;4824472;29;20522;-73
2023/06/14 06:22:37;;;;;;;5.38;3.78;;;;;;;18.02;53.73;101481.97;4824116;29;20085;-73
2023/06/14 06:25:02;;;;;;;6.30;3.83;;;;;;;18.15;54.14;101486.38;4824077;29;20477;-73
2023/06/14 06:27:28;;;;;;;7.35;4.03;;;;;;;18.24;53.37;101478.47;4822507;29;20053;-73
2023/06/14 06:29:53;;;;;;;4.97;3.92;;;;;;;18.33;51.21;101489.94;4824506;29;20102;-73
2023/06/14 06:32:19;;;;;;;4.60;3.65;;;;;;;18.41;52.01;101494.34;4822718;29;20063;-73
2023/06/14 06:34:44;;;;;;;6.25;3.65;;;;;;;18.49;52.10;101490.84;4822936;29;20026;-73
2023/06/14 06:37:10;;;;;;;5.38;3.72;;;;;;;18.58;51.73;101499.66;4822566;29;20032;-73
2023/06/14 06:39:35;;;;;;;7.50;3.80;;;;;;;18.68;51.51;101499.66;4821147;29;20089;-73
2023/06/14 06:42:00;;;;;;;7.28;3.60;;;;;;;18.79;52.38;101500.53;4821566;29;20145;-73
2023/06/14 06:44:26;;;;;;;4.88;3.17;;;;;;;18.88;51.82;101507.63;4821536;29;20042;-73
2023/06/14 06:46:51;;;;;;;6.57;3.83;;;;;;;19.00;51.10;101509.38;4820209;29;20053;-73
2023/06/14 06:49:17;;;;;;;5.47;3.47;;;;;;;19.10;50.74;101506.72;4819502;29;20461;-73
2023/06/14 06:51:43;;;;;;;4.65;3.53;;;;;;;19.20;49.76;101512.84;4819964;29;20551;-73
2023/06/14 06:54:08;;;;;;;7.60;3.60;;;;;;;19.29;51.14;101515.50;4819924;29;20585;-73
2023/06/14 06:56:35;;;;;;;7.85;3.78;;;;;;;19.42;49.97;101516.38;4824509;29;20174;-73
2023/06/14 06:59:00;;;;;;;5.03;3.05;;;;;;;19.47;48.46;101516.34;4823887;29;20102;-73
2023/06/14 07:01:26;;;;;;;5.38;3.63;;;;;;;19.56;50.26;101524.25;4823933;29;20030;-73
2023/06/14 07:03:51;;;;;;;5.63;3.30;;;;;;;19.70;48.32;101516.28;4908835;23;20020;-79
2023/06/14 07:06:18;;;;;;;4.53;3.15;;;;;;;19.78;47.36;101530.41;5086859;23;20501;-81
2023/06/14 07:08:48;;;;;;;7.65;3.40;;;;;;;19.85;47.50;101527.72;5179469;23;20115;-79
2023/06/14 07:11:14;;;;;;;5.47;3.55;;;;;;;19.89;47.51;101525.06;5039592;23;20066;-80
2023/06/14 07:13:39;;;;;;;7.25;3.47;;;;;;;20.00;46.12;101524.13;4859074;29;20034;-79
2023/06/14 07:16:05;;;;;;;5.65;3.35;;;;;;;20.03;45.59;101529.38;5093227;23;20085;-79
2023/06/14 07:21:01;;;;;;;5.28;3.40;;;;;;;20.13;46.51;101531.09;5049873;23;20113;-78
2023/06/14 07:23:26;;;;;;;4.68;2.97;;;;;;;20.33;46.71;101537.19;4858303;29;20037;-78
2023/06/14 07:36:32;;;;;;;5.28;3.10;;;;;;;20.74;44.82;101540.47;4672538;23;20418;-76
2023/06/14 07:38:57;;;;;;;5.13;3.10;;;;;;;21.04;47.10;101541.09;5040682;23;20069;-79
2023/06/14 07:41:23;;;;;;;6.53;3.20;;;;;;;21.19;43.00;101553.34;4859963;29;20025;-79
2023/06/14 07:43:49;;;;;;;4.25;2.95;;;;;;;21.28;43.93;101555.91;4860508;29;20033;-79
2023/06/14 07:46:14;;;;;;;5.35;3.03;;;;;;;21.40;45.28;101554.91;4862716;29;20060;-79
2023/06/14 07:48:40;;;;;;;12.25;4.00;;;;;;;21.50;43.46;101561.00;4862136;29;20048;-79
2023/06/14 07:51:05;;;;;;;5.65;3.47;;;;;;;21.65;43.27;101565.28;4863812;29;20085;-79
2023/06/14 07:53:31;;;;;;;5.65;3.20;;;;;;;21.70;43.40;101567.00;4857919;29;20129;-79
2023/06/14 07:55:57;;;;;;;5.13;3.20;;;;;;;21.73;42.13;101563.44;4858472;29;20052;-79
2023/06/14 07:58:22;;;;;;;5.63;3.50;;;;;;;21.77;43.15;101565.16;4861845;29;20040;-78
2023/06/14 08:00:49;;;;;;;5.20;2.90;;;;;;;21.93;44.19;101571.16;4858252;29;20044;-79
2023/06/14 08:03:15;;;;;;;4.95;3.08;;;;;;;21.88;40.68;101567.69;4862559;29;20037;-79
2023/06/14 08:05:40;;;;;;;5.20;2.97;;;;;;;21.95;41.06;101579.97;4861397;29;20048;-77
2023/06/14 08:08:06;;;;;;;6.40;3.45;;;;;;;22.05;40.90;101559.50;4858890;29;20025;-80
2023/06/14 08:10:31;;;;;;;10.10;3.00;;;;;;;22.15;39.77;101570.91;4855563;29;20060;-77
2023/06/14 08:12:57;;;;;;;4.15;2.83;;;;;;;22.15;39.03;101570.91;4955166;23;20093;-77
2023/06/14 08:15:22;;;;;;;5.28;2.90;;;;;;;22.24;40.95;101566.31;4835136;29;20030;-77
2023/06/14 08:17:47;;;;;;;3.58;2.80;;;;;;;22.39;40.26;101567.94;4831921;29;20052;-77
2023/06/14 08:25:13;;;;;;;6.13;3.00;;;;;;;22.70;41.64;101551.53;4853162;23;20064;-78
2023/06/14 08:27:39;;;;;;;4.93;2.83;;;;;;;22.88;41.21;101554.81;4848092;29;20033;-74
2023/06/14 08:30:07;;;;;;;4.90;2.80;;;;;;;22.86;38.00;101559.28;4853375;29;20075;-74
2023/06/14 08:32:32;;;;;;;5.38;2.75;;;;;;;22.81;37.71;101559.34;4854305;29;20037;-74
2023/06/14 08:34:58;;;;;;;3.72;2.60;;;;;;;22.80;37.74;101560.25;4853101;29;20041;-74
2023/06/14 08:37:23;;;;;;;4.50;2.20;;;;;;;22.88;37.01;101558.34;4851887;29;20100;-74
2023/06/14 08:39:49;;;;;;;7.00;2.40;;;;;;;22.95;37.16;101559.13;4853299;29;20034;-74
2023/06/14 08:42:15;;;;;;;4.28;2.30;;;;;;;23.16;35.65;101565.91;4854622;29;20124;-73
2023/06/14 08:44:40;;;;;;;3.30;2.15;;;;;;;23.07;36.20;101560.69;4853545;29;20033;-73
2023/06/14 08:47:08;;;;;;;3.85;2.03;;;;;;;23.09;35.83;101567.72;4854852;29;20041;-74
2023/06/14 08:52:03;;;;;;;4.97;2.53;;;;;;;23.35;37.76;101562.91;5019789;23;20505;-76
2023/06/14 08:54:35;;;;;;;4.30;2.20;;;;;;;23.54;38.58;101559.00;5181627;23;20031;-79
2023/06/14 08:57:16;;;;;;;4.30;2.38;;;;;;;23.69;37.02;101557.81;5056733;23;20057;-78
2023/06/14 09:02:14;;;;;;;4.28;2.28;;;;;;;23.94;37.14;101560.00;5170844;23;21363;-78
2023/06/14 09:04:37;;;;;;;4.93;2.50;;;;;;;23.88;35.71;101553.03;5111727;23;20027;-80
2023/06/14 09:07:03;;;;;;;5.38;2.10;;;;;;;24.02;37.89;101549.22;4975337;23;20056;-75
2023/06/14 09:10:11;;;;;;;5.40;2.20;;;;;;;24.24;35.60;101562.94;4993920;23;20057;31
2023/06/14 09:12:37;;;;;;;2.85;1.80;;;;;;;24.42;35.28;101569.63;4988489;23;20591;-79
2023/06/14 09:15:08;;;;;;;5.68;2.53;;;;;;;24.32;34.83;101555.66;4976623;23;20064;-77
2023/06/14 09:20:10;;;;;;;4.07;1.85;;;;;;;24.78;34.18;101554.59;4995399;23;20046;-78
2023/06/14 09:22:37;;;;;;;7.40;2.03;;;;;;;24.93;34.69;101556.00;5010936;23;20535;-78
2023/06/14 09:27:35;;;;;;;3.90;1.58;;;;;;;24.60;30.16;101555.91;5033072;23;20571;-78
2023/06/14 09:30:01;;;;;;;2.67;1.70;;;;;;;24.56;32.92;101561.31;4956324;23;20471;-78
2023/06/14 09:32:26;;;;;;;1.75;1.23;;;;;;;24.68;31.83;101561.06;5012353;23;20070;-78
2023/06/14 09:34:52;;;;;;;3.25;1.50;;;;;;;24.78;31.41;101562.59;5027625;23;20061;-79
2023/06/14 09:37:31;;;;;;;3.85;1.30;;;;;;;24.93;31.00;101564.00;5009611;23;20963;-80
2023/06/14 09:39:57;;;;;;;;;;;;;;;25.25;29.77;101570.31;4986307;23;20049;-80
2023/06/14 09:42:25;;;;;;;3.53;1.60;;;;;;;25.30;28.93;101565.72;4974903;23;19933;-80
2023/06/14 09:44:52;;;;;;;2.30;1.15;;;;;;;25.38;30.31;101567.34;5040614;23;20027;-79
2023/06/14 09:47:18;;;;;;;3.13;1.25;;;;;;;25.61;29.94;101577.41;4878847;23;20014;-79
2023/06/14 09:49:44;;;;;;;5.05;1.27;;;;;;;25.86;31.08;101574.91;5095416;23;20058;-79
2023/06/14 09:52:18;;;;;;;3.70;1.30;;;;;;;25.87;29.35;101574.00;4996310;23;20049;-80
2023/06/14 09:57:33;;;;;;;;;;;;;;;26.08;28.50;101575.19;5114682;23;20083;-79
2023/06/14 10:02:38;;;;;;;2.75;1.10;;;;;;;25.56;28.26;101573.97;4896581;23;20314;-79
2023/06/14 10:07:34;;;;;;;4.75;1.58;;;;;;;25.93;30.88;101573.81;5007835;23;20465;-78
2023/06/14 10:10:01;;;;;;;3.20;1.35;;;;;;;26.17;31.61;101571.34;5165944;23;20070;-73
2023/06/14 10:15:27;;;;;;;2.95;1.27;;;;;;;26.41;27.77;101561.72;5022059;23;20024;-78
2023/06/14 10:17:59;;;;;;;2.70;1.45;;;;;;;26.54;29.66;101552.38;4994869;23;20076;-77
2023/06/14 10:20:33;;;;;;;3.47;1.60;;;;;;;26.66;29.00;101561.78;5060720;23;20041;-78
2023/06/14 10:23:07;;;;;;;2.65;1.30;;;;;;;26.57;29.90;101561.25;5074253;23;20057;-77
2023/06/14 10:25:33;;;;;;;3.20;1.80;;;;;;;26.69;30.46;101558.19;5067271;23;20059;-77
2023/06/14 10:31:07;;;;;;;2.88;1.40;;;;;;;26.54;27.96;101560.41;4933342;23;20061;-78
2023/06/14 10:41:16;;;;;;;2.92;1.50;;;;;;;26.25;30.38;101564.00;5220966;23;20031;-77
2023/06/14 10:43:42;;;;;;;2.67;1.42;;;;;;;26.05;27.88;101550.38;4948180;23;20049;-77
2023/06/14 10:46:18;;;;;;;4.30;1.80;;;;;;;26.27;31.75;101558.59;5189050;23;20050;-76
2023/06/14 10:48:44;;;;;;;2.25;1.50;;;;;;;26.60;32.95;101553.97;5166874;23;20214;-75
2023/06/14 10:53:46;;;;;;;3.45;1.60;;;;;;;27.21;26.42;101550.22;4977956;23;20145;-82
2023/06/14 10:56:32;;;;;;;3.35;1.70;;;;;;;27.03;29.87;101560.63;5023554;23;20140;-73
2023/06/14 10:58:57;;;;;;;3.67;1.60;;;;;;;27.31;29.99;101553.44;5060063;23;20458;-79
2023/06/14 11:01:36;;;;;;;2.67;1.65;;;;;;;27.75;30.45;101567.03;4913867;23;20175;-80
2023/06/14 11:04:09;;;;;;;3.90;1.73;;;;;;;27.64;27.11;101566.59;5190993;23;20522;-79
2023/06/14 11:11:55;;;;;;;2.83;1.77;;;;;;;26.94;31.96;101565.41;5069025;23;20057;-78
2023/06/14 11:14:20;;;;;;;3.38;1.60;;;;;;;27.36;29.55;101559.53;4901446;23;20049;-77
2023/06/14 11:16:51;;;;;;;3.08;1.75;;;;;;;27.85;28.67;101559.53;4857656;29;20520;-77
2023/06/14 11:19:19;;;;;;;3.28;1.80;;;;;;;27.92;28.66;101561.94;5192467;23;20043;-77
2023/06/14 11:21:48;;;;;;;2.47;1.50;;;;;;;27.95;29.04;101560.94;5196949;23;21533;-79
2023/06/14 11:24:13;;;;;;;4.85;1.70;;;;;;;28.32;27.86;101558.69;4847389;29;20064;-79
2023/06/14 11:26:40;;;;;;;3.45;1.80;;;;;;;28.27;26.20;101549.00;5007223;23;21292;-79
2023/06/14 11:29:05;;;;;;;2.05;1.48;;;;;;;28.23;27.82;101546.53;5026870;23;20290;-77
2023/06/14 11:31:30;;;;;;;2.93;1.50;;;;;;;27.70;26.32;101553.81;4996626;23;20851;-76
2023/06/14 11:39:03;;;;;;;5.22;2.10;;;;;;;27.34;27.79;101545.34;5141162;23;20125;-78
2023/06/14 11:44:03;;;;;;;2.53;1.70;;;;;;;27.36;27.93;101551.50;5075721;23;20081;-75
2023/06/14 11:46:28;;;;;;;3.65;1.50;;;;;;;27.63;29.42;101548.75;5137877;23;20519;-76
2023/06/14 11:49:09;;;;;;;2.78;1.60;;;;;;;28.08;31.61;101559.59;4922722;23;20073;-96
2023/06/14 11:52:18;;;;;;;2.70;1.50;;;;;;;28.52;28.53;101539.09;4879886;29;20052;-96
2023/06/14 11:55:02;;;;;;;3.00;1.50;;;;;;;28.84;30.82;101548.53;4879459;29;20030;-97
2023/06/14 11:57:31;;;;;;;2.58;1.50;;;;;;;29.14;27.14;101550.84;4889142;29;20029;-96
2023/06/14 12:00:07;;;;;;;;;;;;;;;29.07;25.52;101558.28;4901955;29;20009;-96
2023/06/14 12:03:28;;;;;;;2.90;1.75;;;;;;;28.12;26.36;101543.38;4869510;29;19908;-96
2023/06/14 12:06:53;;;;;;;1.85;1.40;;;;;;;28.11;28.51;101547.84;4885458;29;20101;-96
2023/06/14 12:09:43;;;;;;;2.63;1.45;;;;;;;28.03;28.37;101536.59;4880376;29;20021;-96
2023/06/14 12:12:15;;;;;;;3.35;1.60;;;;;;;27.72;28.08;101535.91;4903445;29;20070;-96
2023/06/14 12:15:11;;;;;;;3.33;1.67;;;;;;;27.51;28.98;101545.59;4876224;29;20065;-96
2023/06/14 12:17:42;;;;;;;3.28;1.80;;;;;;;27.72;29.22;101553.75;4871006;23;20061;-72
2023/06/14 12:20:15;;;;;;;3.63;1.73;;;;;;;28.03;27.02;101553.53;4861674;29;20063;-72
2023/06/14 12:22:50;;;;;;;2.30;1.52;;;;;;;27.52;26.88;101542.00;4859549;29;20053;-71
2023/06/14 12:32:55;;;;;;;3.33;1.50;;;;;;;27.62;28.23;101545.22;5094121;23;20066;-80
2023/06/14 12:37:50;;;;;;;2.80;1.50;;;;;;;28.09;28.80;101549.72;5173075;23;1145202;-78
2023/06/14 12:42:58;;;;;;;3.70;1.65;;;;;;;28.04;25.63;101549.03;5168119;23;20317;-79
2023/06/14 12:45:23;;;;;;;3.55;1.60;;;;;;;27.62;29.21;101542.53;5040107;23;20085;-78
2023/06/14 12:47:48;;;;;;;3.17;1.53;;;;;;;27.75;26.01;101542.94;5116926;23;20173;-77